sensor_id;sensor_type;location;lat;lon;timestamp;temperature;humidity
46336;DHT22;31365;48.858;8.530;2023-01-15T00:02:25;10.80;99.90
46336;DHT22;31365;48.858;8.530;2023-01-15T00:04:54;10.90;99.90
46336;DHT22;31365;48.858;8.530;2023-01-15T00:07:24;11.30;99.90
46336;DHT22;31365;48.858;8.530;2023-01-15T00:09:53;11.20;99.90
46336;DHT22;31365;48.858;8.530;2023-01-15T00:12:22;11.00;99.90
46336;DHT22;31365;48.858;8.530;2023-01-15T00:14:50;11.10;99.90
46336;DHT22;31365;48.858;8.530;2023-01-15T00:17:19;11.10;99.90
46336;DHT22;31365;48.858;8.530;2023-01-15T00:19:48;11.10;99.90
46336;DHT22;31365;48.858;8.530;2023-01-15T00:22:16;11.20;99.90
46336;DHT22;31365;48.858;8.530;2023-01-15T00:24:47;11.40;99.90
46336;DHT22;31365;48.858;8.530;2023-01-15T00:27:33;10.90;99.90
46336;DHT22;31365;48.858;8.530;2023-01-15T00:30:12;11.20;99.90
46336;DHT22;31365;48.858;8.530;2023-01-15T00:32:44;11.10;99.90
46336;DHT22;31365;48.858;8.530;2023-01-15T00:35:14;11.20;99.90
46336;DHT22;31365;48.858;8.530;2023-01-15T00:37:45;10.90;99.90
46336;DHT22;31365;48.858;8.530;2023-01-15T00:40:16;10.90;99.90
46336;DHT22;31365;48.858;8.530;2023-01-15T00:42:47;10.90;99.90
46336;DHT22;31365;48.858;8.530;2023-01-15T00:45:21;10.90;99.90
46336;DHT22;31365;48.858;8.530;2023-01-15T00:47:50;11.20;99.90
46336;DHT22;31365;48.858;8.530;2023-01-15T00:50:20;10.90;99.90
46336;DHT22;31365;48.858;8.530;2023-01-15T00:52:49;10.90;99.90
46336;DHT22;31365;48.858;8.530;2023-01-15T00:55:21;10.90;99.90
46336;DHT22;31365;48.858;8.530;2023-01-15T00:57:49;10.90;99.90
46336;DHT22;31365;48.858;8.530;2023-01-15T01:00:18;11.00;99.90
46336;DHT22;31365;48.858;8.530;2023-01-15T01:02:47;10.90;99.90
46336;DHT22;31365;48.858;8.530;2023-01-15T01:05:16;11.20;99.90
46336;DHT22;31365;48.858;8.530;2023-01-15T01:07:45;10.90;99.90
46336;DHT22;31365;48.858;8.530;2023-01-15T01:10:14;10.80;99.90
46336;DHT22;31365;48.858;8.530;2023-01-15T01:12:44;11.00;99.90
46336;DHT22;31365;48.858;8.530;2023-01-15T01:15:14;10.90;99.90
46336;DHT22;31365;48.858;8.530;2023-01-15T01:17:43;10.90;99.90
46336;DHT22;31365;48.858;8.530;2023-01-15T01:20:12;10.90;99.90
46336;DHT22;31365;48.858;8.530;2023-01-15T01:22:43;10.90;99.90
46336;DHT22;31365;48.858;8.530;2023-01-15T01:25:12;11.30;99.90
46336;DHT22;31365;48.858;8.530;2023-01-15T01:27:44;10.80;99.90
46336;DHT22;31365;48.858;8.530;2023-01-15T01:30:14;10.90;99.90
46336;DHT22;31365;48.858;8.530;2023-01-15T01:32:44;10.80;99.90
46336;DHT22;31365;48.858;8.530;2023-01-15T01:35:13;10.90;99.90
46336;DHT22;31365;48.858;8.530;2023-01-15T01:37:42;10.80;99.90
46336;DHT22;31365;48.858;8.530;2023-01-15T01:40:16;11.00;99.90
46336;DHT22;31365;48.858;8.530;2023-01-15T01:42:46;11.00;99.90
46336;DHT22;31365;48.858;8.530;2023-01-15T01:45:22;11.00;99.90
46336;DHT22;31365;48.858;8.530;2023-01-15T01:47:57;10.90;99.90
46336;DHT22;31365;48.858;8.530;2023-01-15T01:50:31;11.00;99.90
46336;DHT22;31365;48.858;8.530;2023-01-15T01:53:05;11.00;99.90
46336;DHT22;31365;48.858;8.530;2023-01-15T01:55:38;10.90;99.90
46336;DHT22;31365;48.858;8.530;2023-01-15T01:58:10;10.90;99.90
46336;DHT22;31365;48.858;8.530;2023-01-15T02:00:44;10.90;99.90
46336;DHT22;31365;48.858;8.530;2023-01-15T02:03:16;10.90;99.90
46336;DHT22;31365;48.858;8.530;2023-01-15T02:05:51;10.90;99.90
46336;DHT22;31365;48.858;8.530;2023-01-15T02:08:23;10.80;99.90
46336;DHT22;31365;48.858;8.530;2023-01-15T02:10:54;10.80;99.90
46336;DHT22;31365;48.858;8.530;2023-01-15T02:13:35;10.90;99.90
46336;DHT22;31365;48.858;8.530;2023-01-15T02:16:10;11.00;99.90
46336;DHT22;31365;48.858;8.530;2023-01-15T02:18:50;11.00;99.90
46336;DHT22;31365;48.858;8.530;2023-01-15T02:21:41;10.90;99.90
46336;DHT22;31365;48.858;8.530;2023-01-15T02:24:24;10.90;99.90
46336;DHT22;31365;48.858;8.530;2023-01-15T02:27:10;11.00;99.90
46336;DHT22;31365;48.858;8.530;2023-01-15T02:29:49;10.90;99.90
46336;DHT22;31365;48.858;8.530;2023-01-15T02:32:30;10.90;99.90
46336;DHT22;31365;48.858;8.530;2023-01-15T02:35:07;10.80;99.90
46336;DHT22;31365;48.858;8.530;2023-01-15T02:37:45;11.00;99.90
46336;DHT22;31365;48.858;8.530;2023-01-15T02:40:23;11.10;99.90
46336;DHT22;31365;48.858;8.530;2023-01-15T02:42:56;11.00;99.90
46336;DHT22;31365;48.858;8.530;2023-01-15T02:45:30;10.90;99.90
46336;DHT22;31365;48.858;8.530;2023-01-15T02:48:12;10.90;99.90
46336;DHT22;31365;48.858;8.530;2023-01-15T02:50:44;11.10;99.90
46336;DHT22;31365;48.858;8.530;2023-01-15T02:53:22;10.90;99.90
46336;DHT22;31365;48.858;8.530;2023-01-15T02:55:58;11.10;99.90
46336;DHT22;31365;48.858;8.530;2023-01-15T02:58:41;11.10;99.90
46336;DHT22;31365;48.858;8.530;2023-01-15T03:01:16;11.10;99.90
46336;DHT22;31365;48.858;8.530;2023-01-15T03:03:57;11.30;99.90
46336;DHT22;31365;48.858;8.530;2023-01-15T03:06:36;11.20;99.90
46336;DHT22;31365;48.858;8.530;2023-01-15T03:09:09;11.30;99.90
46336;DHT22;31365;48.858;8.530;2023-01-15T03:11:44;11.30;99.90
46336;DHT22;31365;48.858;8.530;2023-01-15T03:14:22;11.30;99.90
46336;DHT22;31365;48.858;8.530;2023-01-15T03:17:03;11.70;99.90
46336;DHT22;31365;48.858;8.530;2023-01-15T03:19:44;11.50;99.90
46336;DHT22;31365;48.858;8.530;2023-01-15T03:22:24;11.50;99.90
46336;DHT22;31365;48.858;8.530;2023-01-15T03:25:02;11.50;99.90
46336;DHT22;31365;48.858;8.530;2023-01-15T03:27:42;11.40;99.90
46336;DHT22;31365;48.858;8.530;2023-01-15T03:30:19;11.40;99.90
46336;DHT22;31365;48.858;8.530;2023-01-15T03:32:52;11.50;99.90
46336;DHT22;31365;48.858;8.530;2023-01-15T03:35:45;11.40;99.90
46336;DHT22;31365;48.858;8.530;2023-01-15T03:38:32;11.30;99.90
46336;DHT22;31365;48.858;8.530;2023-01-15T03:41:13;11.20;99.90
46336;DHT22;31365;48.858;8.530;2023-01-15T03:44:05;11.30;99.90
46336;DHT22;31365;48.858;8.530;2023-01-15T03:46:53;11.10;99.90
46336;DHT22;31365;48.858;8.530;2023-01-15T03:49:40;11.20;99.90
46336;DHT22;31365;48.858;8.530;2023-01-15T03:52:37;11.20;99.90
46336;DHT22;31365;48.858;8.530;2023-01-15T03:55:15;11.00;99.90
46336;DHT22;31365;48.858;8.530;2023-01-15T03:58:04;11.00;99.90
46336;DHT22;31365;48.858;8.530;2023-01-15T04:00:44;11.00;99.90
46336;DHT22;31365;48.858;8.530;2023-01-15T04:03:24;11.30;99.90
46336;DHT22;31365;48.858;8.530;2023-01-15T04:06:07;11.00;99.90
46336;DHT22;31365;48.858;8.530;2023-01-15T04:08:45;11.00;99.90
46336;DHT22;31365;48.858;8.530;2023-01-15T04:11:21;10.80;99.90
46336;DHT22;31365;48.858;8.530;2023-01-15T04:14:00;11.00;99.90
46336;DHT22;31365;48.858;8.530;2023-01-15T04:16:42;10.90;99.90
46336;DHT22;31365;48.858;8.530;2023-01-15T04:19:16;10.90;99.90
46336;DHT22;31365;48.858;8.530;2023-01-15T04:21:59;10.90;99.90
46336;DHT22;31365;48.858;8.530;2023-01-15T04:24:32;10.90;99.90
46336;DHT22;31365;48.858;8.530;2023-01-15T04:27:21;10.60;99.90
46336;DHT22;31365;48.858;8.530;2023-01-15T04:29:55;9.90;99.90
46336;DHT22;31365;48.858;8.530;2023-01-15T04:32:34;9.30;99.90
46336;DHT22;31365;48.858;8.530;2023-01-15T04:35:09;9.00;99.90
46336;DHT22;31365;48.858;8.530;2023-01-15T04:37:40;8.70;99.90
46336;DHT22;31365;48.858;8.530;2023-01-15T04:40:11;8.50;99.90
46336;DHT22;31365;48.858;8.530;2023-01-15T04:43:02;8.30;99.90
46336;DHT22;31365;48.858;8.530;2023-01-15T04:45:48;8.20;99.90
46336;DHT22;31365;48.858;8.530;2023-01-15T04:48:17;8.10;99.90
46336;DHT22;31365;48.858;8.530;2023-01-15T04:50:48;8.00;99.90
46336;DHT22;31365;48.858;8.530;2023-01-15T04:53:17;8.00;99.90
46336;DHT22;31365;48.858;8.530;2023-01-15T04:55:46;8.00;99.90
46336;DHT22;31365;48.858;8.530;2023-01-15T04:58:16;7.90;99.90
46336;DHT22;31365;48.858;8.530;2023-01-15T05:00:45;7.80;99.90
46336;DHT22;31365;48.858;8.530;2023-01-15T05:03:14;7.80;99.90
46336;DHT22;31365;48.858;8.530;2023-01-15T05:05:43;7.80;99.90
46336;DHT22;31365;48.858;8.530;2023-01-15T05:08:14;7.70;99.90
46336;DHT22;31365;48.858;8.530;2023-01-15T05:10:44;7.80;99.90
46336;DHT22;31365;48.858;8.530;2023-01-15T05:13:13;7.70;99.90
46336;DHT22;31365;48.858;8.530;2023-01-15T05:15:42;8.00;99.90
46336;DHT22;31365;48.858;8.530;2023-01-15T05:18:12;7.80;99.90
46336;DHT22;31365;48.858;8.530;2023-01-15T05:20:44;7.70;99.90
46336;DHT22;31365;48.858;8.530;2023-01-15T05:23:15;7.70;99.90
46336;DHT22;31365;48.858;8.530;2023-01-15T05:25:44;7.70;99.90
46336;DHT22;31365;48.858;8.530;2023-01-15T05:28:13;7.90;99.90
46336;DHT22;31365;48.858;8.530;2023-01-15T05:30:42;7.60;99.90
46336;DHT22;31365;48.858;8.530;2023-01-15T05:33:11;7.70;99.90
46336;DHT22;31365;48.858;8.530;2023-01-15T05:35:41;7.50;99.90
46336;DHT22;31365;48.858;8.530;2023-01-15T05:38:10;7.50;99.90
46336;DHT22;31365;48.858;8.530;2023-01-15T05:40:45;7.50;99.90
46336;DHT22;31365;48.858;8.530;2023-01-15T05:43:14;7.40;99.90
46336;DHT22;31365;48.858;8.530;2023-01-15T05:45:43;7.50;99.90
46336;DHT22;31365;48.858;8.530;2023-01-15T05:48:12;7.40;99.90
46336;DHT22;31365;48.858;8.530;2023-01-15T05:50:42;7.40;99.90
46336;DHT22;31365;48.858;8.530;2023-01-15T05:53:12;7.10;99.90
46336;DHT22;31365;48.858;8.530;2023-01-15T05:55:45;7.10;99.90
46336;DHT22;31365;48.858;8.530;2023-01-15T05:58:17;7.10;99.90
46336;DHT22;31365;48.858;8.530;2023-01-15T06:00:46;7.10;99.90
46336;DHT22;31365;48.858;8.530;2023-01-15T06:03:15;7.10;99.90
46336;DHT22;31365;48.858;8.530;2023-01-15T06:05:49;7.20;99.90
46336;DHT22;31365;48.858;8.530;2023-01-15T06:08:19;6.90;99.90
46336;DHT22;31365;48.858;8.530;2023-01-15T06:10:49;6.90;99.90
46336;DHT22;31365;48.858;8.530;2023-01-15T06:13:18;6.80;99.90
46336;DHT22;31365;48.858;8.530;2023-01-15T06:15:47;6.70;99.90
46336;DHT22;31365;48.858;8.530;2023-01-15T06:18:17;6.90;99.90
46336;DHT22;31365;48.858;8.530;2023-01-15T06:20:46;6.60;99.90
46336;DHT22;31365;48.858;8.530;2023-01-15T06:23:17;6.80;99.90
46336;DHT22;31365;48.858;8.530;2023-01-15T06:25:50;6.60;99.90
46336;DHT22;31365;48.858;8.530;2023-01-15T06:28:20;6.50;99.90
46336;DHT22;31365;48.858;8.530;2023-01-15T06:30:48;6.40;99.90
46336;DHT22;31365;48.858;8.530;2023-01-15T06:33:19;6.30;99.90
46336;DHT22;31365;48.858;8.530;2023-01-15T06:35:49;6.30;99.90
46336;DHT22;31365;48.858;8.530;2023-01-15T06:38:19;6.10;99.90
46336;DHT22;31365;48.858;8.530;2023-01-15T06:40:53;6.10;99.90
46336;DHT22;31365;48.858;8.530;2023-01-15T06:43:22;6.10;99.90
46336;DHT22;31365;48.858;8.530;2023-01-15T06:46:09;6.00;99.90
46336;DHT22;31365;48.858;8.530;2023-01-15T06:48:57;6.00;99.90
46336;DHT22;31365;48.858;8.530;2023-01-15T06:51:30;6.00;99.90
46336;DHT22;31365;48.858;8.530;2023-01-15T06:54:01;6.10;99.90
46336;DHT22;31365;48.858;8.530;2023-01-15T06:56:39;6.00;99.90
46336;DHT22;31365;48.858;8.530;2023-01-15T06:59:12;5.90;99.90
46336;DHT22;31365;48.858;8.530;2023-01-15T07:01:41;6.00;99.90
46336;DHT22;31365;48.858;8.530;2023-01-15T07:04:12;6.10;99.90
46336;DHT22;31365;48.858;8.530;2023-01-15T07:06:43;5.90;99.90
46336;DHT22;31365;48.858;8.530;2023-01-15T07:09:13;5.90;99.90
46336;DHT22;31365;48.858;8.530;2023-01-15T07:11:48;5.90;99.90
46336;DHT22;31365;48.858;8.530;2023-01-15T07:14:19;5.90;99.90
46336;DHT22;31365;48.858;8.530;2023-01-15T07:16:54;5.90;99.90
46336;DHT22;31365;48.858;8.530;2023-01-15T07:19:27;5.90;99.90
46336;DHT22;31365;48.858;8.530;2023-01-15T07:21:57;5.80;99.90
46336;DHT22;31365;48.858;8.530;2023-01-15T07:24:26;5.90;99.90
46336;DHT22;31365;48.858;8.530;2023-01-15T07:26:59;5.90;99.90
46336;DHT22;31365;48.858;8.530;2023-01-15T07:29:30;5.90;99.90
46336;DHT22;31365;48.858;8.530;2023-01-15T07:32:02;5.90;99.90
46336;DHT22;31365;48.858;8.530;2023-01-15T07:34:35;5.90;99.90
46336;DHT22;31365;48.858;8.530;2023-01-15T07:37:07;5.90;99.90
46336;DHT22;31365;48.858;8.530;2023-01-15T07:39:37;5.90;99.90
46336;DHT22;31365;48.858;8.530;2023-01-15T07:42:12;5.90;99.90
46336;DHT22;31365;48.858;8.530;2023-01-15T07:45:00;5.90;99.90
46336;DHT22;31365;48.858;8.530;2023-01-15T07:47:49;5.80;99.90
46336;DHT22;31365;48.858;8.530;2023-01-15T07:50:38;5.90;99.90
46336;DHT22;31365;48.858;8.530;2023-01-15T07:53:10;6.00;99.90
46336;DHT22;31365;48.858;8.530;2023-01-15T07:55:43;5.80;99.90
46336;DHT22;31365;48.858;8.530;2023-01-15T07:58:15;6.00;99.90
46336;DHT22;31365;48.858;8.530;2023-01-15T08:00:47;5.60;99.90
46336;DHT22;31365;48.858;8.530;2023-01-15T08:03:18;5.60;99.90
46336;DHT22;31365;48.858;8.530;2023-01-15T08:05:48;5.60;99.90
46336;DHT22;31365;48.858;8.530;2023-01-15T08:08:25;5.50;99.90
46336;DHT22;31365;48.858;8.530;2023-01-15T08:11:01;5.70;99.90
46336;DHT22;31365;48.858;8.530;2023-01-15T08:13:49;5.40;99.90
46336;DHT22;31365;48.858;8.530;2023-01-15T08:16:36;5.40;99.90
46336;DHT22;31365;48.858;8.530;2023-01-15T08:19:05;5.30;99.90
46336;DHT22;31365;48.858;8.530;2023-01-15T08:21:34;5.30;99.90
46336;DHT22;31365;48.858;8.530;2023-01-15T08:24:04;5.30;99.90
46336;DHT22;31365;48.858;8.530;2023-01-15T08:26:32;5.20;99.90
46336;DHT22;31365;48.858;8.530;2023-01-15T08:29:02;5.20;99.90
46336;DHT22;31365;48.858;8.530;2023-01-15T08:31:32;5.30;99.90
46336;DHT22;31365;48.858;8.530;2023-01-15T08:34:02;5.20;99.90
46336;DHT22;31365;48.858;8.530;2023-01-15T08:36:30;5.30;99.90
46336;DHT22;31365;48.858;8.530;2023-01-15T08:38:59;5.30;99.90
46336;DHT22;31365;48.858;8.530;2023-01-15T08:41:29;5.50;99.90
46336;DHT22;31365;48.858;8.530;2023-01-15T08:43:58;5.30;99.90
46336;DHT22;31365;48.858;8.530;2023-01-15T08:46:29;5.30;99.90
46336;DHT22;31365;48.858;8.530;2023-01-15T08:48:57;5.30;99.90
46336;DHT22;31365;48.858;8.530;2023-01-15T08:51:26;5.50;99.90
46336;DHT22;31365;48.858;8.530;2023-01-15T08:53:56;5.30;99.90
46336;DHT22;31365;48.858;8.530;2023-01-15T08:56:25;5.30;99.90
46336;DHT22;31365;48.858;8.530;2023-01-15T08:58:54;5.30;99.90
46336;DHT22;31365;48.858;8.530;2023-01-15T09:01:23;5.30;99.90
46336;DHT22;31365;48.858;8.530;2023-01-15T09:03:55;5.20;99.90
46336;DHT22;31365;48.858;8.530;2023-01-15T09:06:26;5.20;99.90
46336;DHT22;31365;48.858;8.530;2023-01-15T09:08:57;5.30;99.90
46336;DHT22;31365;48.858;8.530;2023-01-15T09:11:26;5.10;99.90
46336;DHT22;31365;48.858;8.530;2023-01-15T09:13:56;5.10;99.90
46336;DHT22;31365;48.858;8.530;2023-01-15T09:16:25;5.10;99.90
46336;DHT22;31365;48.858;8.530;2023-01-15T09:18:59;4.90;99.90
46336;DHT22;31365;48.858;8.530;2023-01-15T09:21:28;5.00;99.90
46336;DHT22;31365;48.858;8.530;2023-01-15T09:23:57;5.00;99.90
46336;DHT22;31365;48.858;8.530;2023-01-15T09:26:29;4.90;99.90
46336;DHT22;31365;48.858;8.530;2023-01-15T09:29:12;5.30;99.90
46336;DHT22;31365;48.858;8.530;2023-01-15T09:31:41;4.90;99.90
46336;DHT22;31365;48.858;8.530;2023-01-15T09:34:12;4.80;99.90
46336;DHT22;31365;48.858;8.530;2023-01-15T09:36:40;4.80;99.90
46336;DHT22;31365;48.858;8.530;2023-01-15T09:39:10;4.80;99.90
46336;DHT22;31365;48.858;8.530;2023-01-15T09:41:58;5.00;99.90
46336;DHT22;31365;48.858;8.530;2023-01-15T09:44:54;4.70;99.90
46336;DHT22;31365;48.858;8.530;2023-01-15T09:47:42;4.70;99.90
46336;DHT22;31365;48.858;8.530;2023-01-15T09:50:25;4.60;99.90
46336;DHT22;31365;48.858;8.530;2023-01-15T09:53:21;4.60;99.90
46336;DHT22;31365;48.858;8.530;2023-01-15T09:56:13;4.60;99.90
46336;DHT22;31365;48.858;8.530;2023-01-15T09:58:49;4.50;99.90
46336;DHT22;31365;48.858;8.530;2023-01-15T10:01:25;4.40;99.90
46336;DHT22;31365;48.858;8.530;2023-01-15T10:04:01;4.50;99.90
46336;DHT22;31365;48.858;8.530;2023-01-15T10:06:46;4.30;99.90
46336;DHT22;31365;48.858;8.530;2023-01-15T10:09:28;4.40;99.90
46336;DHT22;31365;48.858;8.530;2023-01-15T10:12:11;4.30;99.90
46336;DHT22;31365;48.858;8.530;2023-01-15T10:15:14;4.30;99.90
46336;DHT22;31365;48.858;8.530;2023-01-15T10:17:49;4.20;99.90
46336;DHT22;31365;48.858;8.530;2023-01-15T10:23:58;4.10;99.90
46336;DHT22;31365;48.858;8.530;2023-01-15T10:26:36;4.20;99.90
46336;DHT22;31365;48.858;8.530;2023-01-15T10:29:15;3.80;99.90
46336;DHT22;31365;48.858;8.530;2023-01-15T10:31:53;4.30;99.90
46336;DHT22;31365;48.858;8.530;2023-01-15T10:35:02;3.80;99.90
46336;DHT22;31365;48.858;8.530;2023-01-15T10:37:49;3.70;99.90
46336;DHT22;31365;48.858;8.530;2023-01-15T10:44:04;3.60;99.90
46336;DHT22;31365;48.858;8.530;2023-01-15T10:46:50;3.60;99.90
46336;DHT22;31365;48.858;8.530;2023-01-15T10:49:27;3.60;99.90
46336;DHT22;31365;48.858;8.530;2023-01-15T10:52:03;3.60;99.90
46336;DHT22;31365;48.858;8.530;2023-01-15T10:54:45;3.60;99.90
46336;DHT22;31365;48.858;8.530;2023-01-15T10:57:24;3.60;99.90
46336;DHT22;31365;48.858;8.530;2023-01-15T11:00:10;3.80;99.90
46336;DHT22;31365;48.858;8.530;2023-01-15T11:02:43;3.50;99.90
46336;DHT22;31365;48.858;8.530;2023-01-15T11:05:16;3.60;99.90
46336;DHT22;31365;48.858;8.530;2023-01-15T11:07:49;3.50;99.90
46336;DHT22;31365;48.858;8.530;2023-01-15T11:10:41;3.70;99.90
46336;DHT22;31365;48.858;8.530;2023-01-15T11:13:19;3.60;99.90
46336;DHT22;31365;48.858;8.530;2023-01-15T11:16:26;3.60;99.90
46336;DHT22;31365;48.858;8.530;2023-01-15T11:19:23;3.50;99.90
46336;DHT22;31365;48.858;8.530;2023-01-15T11:22:13;3.60;99.90
46336;DHT22;31365;48.858;8.530;2023-01-15T11:24:47;3.70;99.90
46336;DHT22;31365;48.858;8.530;2023-01-15T11:27:26;3.90;99.90
46336;DHT22;31365;48.858;8.530;2023-01-15T11:30:03;3.80;99.90
46336;DHT22;31365;48.858;8.530;2023-01-15T11:32:54;3.80;99.90
46336;DHT22;31365;48.858;8.530;2023-01-15T11:35:26;3.90;99.90
46336;DHT22;31365;48.858;8.530;2023-01-15T11:38:12;3.80;99.90
46336;DHT22;31365;48.858;8.530;2023-01-15T11:40:51;3.90;99.90
46336;DHT22;31365;48.858;8.530;2023-01-15T11:43:27;4.00;99.90
46336;DHT22;31365;48.858;8.530;2023-01-15T11:46:29;4.10;99.90
46336;DHT22;31365;48.858;8.530;2023-01-15T11:49:19;4.10;99.90
46336;DHT22;31365;48.858;8.530;2023-01-15T11:52:11;4.10;99.90
46336;DHT22;31365;48.858;8.530;2023-01-15T11:54:47;4.10;99.90
46336;DHT22;31365;48.858;8.530;2023-01-15T11:57:27;4.20;99.90
46336;DHT22;31365;48.858;8.530;2023-01-15T11:59:59;4.30;99.90
46336;DHT22;31365;48.858;8.530;2023-01-15T12:02:40;4.20;99.90
46336;DHT22;31365;48.858;8.530;2023-01-15T12:05:20;4.30;99.90
46336;DHT22;31365;48.858;8.530;2023-01-15T12:07:57;4.40;99.90
46336;DHT22;31365;48.858;8.530;2023-01-15T12:10:32;4.40;99.90
46336;DHT22;31365;48.858;8.530;2023-01-15T12:13:31;4.50;99.90
46336;DHT22;31365;48.858;8.530;2023-01-15T12:16:21;4.50;99.90
46336;DHT22;31365;48.858;8.530;2023-01-15T12:19:00;4.60;99.90
46336;DHT22;31365;48.858;8.530;2023-01-15T12:22:12;4.60;99.90
46336;DHT22;31365;48.858;8.530;2023-01-15T12:25:19;4.70;99.90
46336;DHT22;31365;48.858;8.530;2023-01-15T12:28:01;5.00;99.90
46336;DHT22;31365;48.858;8.530;2023-01-15T12:30:40;4.90;99.90
46336;DHT22;31365;48.858;8.530;2023-01-15T12:33:26;4.90;99.90
46336;DHT22;31365;48.858;8.530;2023-01-15T12:36:07;4.90;99.90
46336;DHT22;31365;48.858;8.530;2023-01-15T13:31:59;5.20;99.90
46336;DHT22;31365;48.858;8.530;2023-01-15T13:34:36;5.30;99.90
46336;DHT22;31365;48.858;8.530;2023-01-15T13:37:22;5.20;99.90
46336;DHT22;31365;48.858;8.530;2023-01-15T13:40:00;5.30;99.90
46336;DHT22;31365;48.858;8.530;2023-01-15T13:42:38;5.20;99.90
46336;DHT22;31365;48.858;8.530;2023-01-15T13:45:32;5.20;99.90
46336;DHT22;31365;48.858;8.530;2023-01-15T13:48:13;5.30;99.90
46336;DHT22;31365;48.858;8.530;2023-01-15T13:50:51;5.30;99.90
46336;DHT22;31365;48.858;8.530;2023-01-15T13:53:27;5.30;99.90
46336;DHT22;31365;48.858;8.530;2023-01-15T13:56:00;5.50;99.90
46336;DHT22;31365;48.858;8.530;2023-01-15T13:58:36;5.40;99.90
46336;DHT22;31365;48.858;8.530;2023-01-15T14:01:22;5.40;99.90
46336;DHT22;31365;48.858;8.530;2023-01-15T14:03:59;5.50;99.90
46336;DHT22;31365;48.858;8.530;2023-01-15T14:06:41;5.60;99.90
46336;DHT22;31365;48.858;8.530;2023-01-15T14:09:13;5.60;99.90
46336;DHT22;31365;48.858;8.530;2023-01-15T14:12:06;5.60;99.90
46336;DHT22;31365;48.858;8.530;2023-01-15T14:14:54;5.70;99.90
46336;DHT22;31365;48.858;8.530;2023-01-15T14:18:04;5.70;99.90
46336;DHT22;31365;48.858;8.530;2023-01-15T14:21:02;5.70;99.90
46336;DHT22;31365;48.858;8.530;2023-01-15T14:23:52;5.70;99.90
46336;DHT22;31365;48.858;8.530;2023-01-15T14:26:43;5.70;99.90
46336;DHT22;31365;48.858;8.530;2023-01-15T14:29:45;6.00;99.90
46336;DHT22;31365;48.858;8.530;2023-01-15T14:32:50;5.60;99.90
46336;DHT22;31365;48.858;8.530;2023-01-15T14:35:33;5.40;99.90
46336;DHT22;31365;48.858;8.530;2023-01-15T14:38:11;5.40;99.90
46336;DHT22;31365;48.858;8.530;2023-01-15T14:40:52;5.40;99.90
46336;DHT22;31365;48.858;8.530;2023-01-15T14:43:28;5.40;99.90
46336;DHT22;31365;48.858;8.530;2023-01-15T14:46:12;5.70;99.90
46336;DHT22;31365;48.858;8.530;2023-01-15T14:48:46;5.40;99.90
46336;DHT22;31365;48.858;8.530;2023-01-15T14:51:21;5.40;99.90
46336;DHT22;31365;48.858;8.530;2023-01-15T14:54:01;5.40;99.90
46336;DHT22;31365;48.858;8.530;2023-01-15T14:56:47;5.40;99.90
46336;DHT22;31365;48.858;8.530;2023-01-15T14:59:27;5.40;99.90
46336;DHT22;31365;48.858;8.530;2023-01-15T15:02:01;5.40;99.90
46336;DHT22;31365;48.858;8.530;2023-01-15T15:04:46;5.40;99.90
46336;DHT22;31365;48.858;8.530;2023-01-15T15:07:22;5.40;99.90
46336;DHT22;31365;48.858;8.530;2023-01-15T15:10:24;5.40;99.90
46336;DHT22;31365;48.858;8.530;2023-01-15T15:13:08;5.50;99.90
46336;DHT22;31365;48.858;8.530;2023-01-15T15:15:49;5.60;99.90
46336;DHT22;31365;48.858;8.530;2023-01-15T15:18:31;5.60;99.90
46336;DHT22;31365;48.858;8.530;2023-01-15T15:21:15;5.50;99.90
46336;DHT22;31365;48.858;8.530;2023-01-15T15:23:57;5.40;99.90
46336;DHT22;31365;48.858;8.530;2023-01-15T15:26:40;5.50;99.90
46336;DHT22;31365;48.858;8.530;2023-01-15T15:29:11;5.40;99.90
46336;DHT22;31365;48.858;8.530;2023-01-15T15:31:51;5.40;99.90
46336;DHT22;31365;48.858;8.530;2023-01-15T15:34:42;5.60;99.90
46336;DHT22;31365;48.858;8.530;2023-01-15T15:37:17;5.40;99.90
46336;DHT22;31365;48.858;8.530;2023-01-15T15:39:54;5.40;99.90
46336;DHT22;31365;48.858;8.530;2023-01-15T15:42:34;5.30;99.90
46336;DHT22;31365;48.858;8.530;2023-01-15T15:45:31;5.30;99.90
46336;DHT22;31365;48.858;8.530;2023-01-15T15:48:27;5.20;99.90
46336;DHT22;31365;48.858;8.530;2023-01-15T15:51:55;5.50;99.90
46336;DHT22;31365;48.858;8.530;2023-01-15T15:54:28;5.40;99.90
46336;DHT22;31365;48.858;8.530;2023-01-15T15:57:04;5.10;99.90
46336;DHT22;31365;48.858;8.530;2023-01-15T15:59:46;5.00;99.90
46336;DHT22;31365;48.858;8.530;2023-01-15T16:02:24;5.00;99.90
46336;DHT22;31365;48.858;8.530;2023-01-15T16:05:20;5.00;99.90
46336;DHT22;31365;48.858;8.530;2023-01-15T16:08:05;5.10;99.90
46336;DHT22;31365;48.858;8.530;2023-01-15T16:10:38;5.00;99.90
46336;DHT22;31365;48.858;8.530;2023-01-15T16:13:15;5.10;99.90
46336;DHT22;31365;48.858;8.530;2023-01-15T16:15:57;5.00;99.90
46336;DHT22;31365;48.858;8.530;2023-01-15T16:18:32;5.00;99.90
46336;DHT22;31365;48.858;8.530;2023-01-15T16:21:08;5.00;99.90
46336;DHT22;31365;48.858;8.530;2023-01-15T16:23:41;5.00;99.90
46336;DHT22;31365;48.858;8.530;2023-01-15T16:26:14;5.00;99.90
46336;DHT22;31365;48.858;8.530;2023-01-15T16:28:51;5.60;99.90
46336;DHT22;31365;48.858;8.530;2023-01-15T16:31:31;5.00;99.90
46336;DHT22;31365;48.858;8.530;2023-01-15T16:34:17;5.00;99.90
46336;DHT22;31365;48.858;8.530;2023-01-15T16:36:52;5.00;99.90
46336;DHT22;31365;48.858;8.530;2023-01-15T16:39:26;5.00;99.90
46336;DHT22;31365;48.858;8.530;2023-01-15T16:42:02;5.00;99.90
46336;DHT22;31365;48.858;8.530;2023-01-15T16:44:52;5.00;99.90
46336;DHT22;31365;48.858;8.530;2023-01-15T16:47:29;5.10;99.90
46336;DHT22;31365;48.858;8.530;2023-01-15T16:50:25;5.00;99.90
46336;DHT22;31365;48.858;8.530;2023-01-15T16:52:59;4.90;99.90
46336;DHT22;31365;48.858;8.530;2023-01-15T16:55:39;4.80;99.90
46336;DHT22;31365;48.858;8.530;2023-01-15T16:58:15;4.90;99.90
46336;DHT22;31365;48.858;8.530;2023-01-15T17:00:50;5.20;99.90
46336;DHT22;31365;48.858;8.530;2023-01-15T17:03:25;4.90;99.90
46336;DHT22;31365;48.858;8.530;2023-01-15T17:06:00;4.80;99.90
46336;DHT22;31365;48.858;8.530;2023-01-15T17:08:46;4.90;99.90
46336;DHT22;31365;48.858;8.530;2023-01-15T17:11:23;4.90;99.90
46336;DHT22;31365;48.858;8.530;2023-01-15T17:14:08;5.00;99.90
46336;DHT22;31365;48.858;8.530;2023-01-15T17:16:43;5.10;99.90
46336;DHT22;31365;48.858;8.530;2023-01-15T17:19:21;5.10;99.90
46336;DHT22;31365;48.858;8.530;2023-01-15T17:21:56;4.90;99.90
46336;DHT22;31365;48.858;8.530;2023-01-15T17:24:29;5.10;99.90
46336;DHT22;31365;48.858;8.530;2023-01-15T17:26:58;5.10;99.90
46336;DHT22;31365;48.858;8.530;2023-01-15T17:29:37;5.10;99.90
46336;DHT22;31365;48.858;8.530;2023-01-15T17:32:12;5.10;99.90
46336;DHT22;31365;48.858;8.530;2023-01-15T17:34:54;5.00;99.90
46336;DHT22;31365;48.858;8.530;2023-01-15T17:37:29;5.10;99.90
46336;DHT22;31365;48.858;8.530;2023-01-15T17:40:00;5.20;99.90
46336;DHT22;31365;48.858;8.530;2023-01-15T17:42:33;5.10;99.90
46336;DHT22;31365;48.858;8.530;2023-01-15T17:45:08;5.00;99.90
46336;DHT22;31365;48.858;8.530;2023-01-15T17:47:50;5.10;99.90